This is the latest recevied weather packets stored in our database for station/object N7TUG-8. If no packets are shown the sender has not sent any weather packets the latest 10 day(s).
| Time | Temp. | Humidity | Pressure | Rain* | Wind** | Luminosity | Snow |
|---|---|---|---|---|---|---|---|
| 1777228736 | 18.33° C | 46% | 1009.3 hPa | 0 mm | 0.45 m/s, 266° | - | - |
| 1777227966 | 17.78° C | 45% | 1009.2 hPa | 0 mm | 0.45 m/s, 79° | - | - |
| 1777227762 | 18.33° C | 44% | 1009.2 hPa | 0 mm | 0.45 m/s, 106° | - | - |
| 1777227126 | 18.89° C | 45% | 1009.3 hPa | 0 mm | 0.89 m/s, 157° | - | - |
| 1777226942 | 18.89° C | 45% | 1009.3 hPa | 0 mm | 0.45 m/s, 156° | - | - |
| 1777226352 | 18.33° C | 48% | 1009.4 hPa | 0 mm | 0.45 m/s, 120° | - | - |
| 1777226128 | 18.33° C | 48% | 1009.4 hPa | 0 mm | 0.45 m/s, 120° | - | - |
| 1777225581 | 16.67° C | 48% | 1009.4 hPa | 0 mm | 0.89 m/s, 109° | - | - |
| 1777225228 | 16.11° C | 49% | 1009.4 hPa | 0 mm | 1.34 m/s, 115° | - | - |
| 1777224751 | 16.67° C | 49% | 1009.4 hPa | 0 mm | 0.89 m/s, 116° | - | - |
| 1777224458 | 16.11° C | 49% | 1009.3 hPa | 0 mm | 1.34 m/s, 149° | - | - |
| 1777223911 | 15.56° C | 49% | 1009.3 hPa | 0 mm | 1.34 m/s, 116° | - | - |
| 1777223627 | 16.11° C | 48% | 1009.3 hPa | 0 mm | 1.34 m/s, 123° | - | - |
| 1777223076 | 15.56° C | 50% | 1009.3 hPa | 0 mm | 0.89 m/s, 111° | - | - |
| 1777222186 | 15° C | 52% | 1009.3 hPa | 0 mm | 1.34 m/s, 117° | - | - |
| 1777222143 | 15° C | 52% | 1009.3 hPa | 0 mm | 1.34 m/s, 117° | - | - |
| 1777221403 | 13.89° C | 53% | 1009.3 hPa | 0 mm | 1.79 m/s, 111° | - | - |
| 1777221351 | 13.89° C | 53% | 1009.3 hPa | 0 mm | 1.79 m/s, 111° | - | - |
| 1777220499 | 15° C | 53% | 1009.4 hPa | 0 mm | 0.89 m/s, 101° | - | - |
| 1777219546 | 13.89° C | 55% | 1009.5 hPa | 0 mm | 1.34 m/s, 128° | - | - |
| 1777218721 | 13.89° C | 56% | 1009.4 hPa | 0 mm | 0.89 m/s, 122° | - | - |
| 1777218153 | 13.33° C | 61% | 1009.4 hPa | 0 mm | 0.45 m/s, 110° | - | - |
| 1777217786 | 11.67° C | 61% | 1009.4 hPa | 0 mm | 1.34 m/s, 109° | - | - |
| 1777216961 | 10.56° C | 65% | 1009.3 hPa | 0 mm | 2.24 m/s, 112° | - | - |
| 1777216592 | 10° C | 63% | 1009.4 hPa | 0 mm | 2.24 m/s, 130° | - | - |
* Rain latest hour (hover to see other rain measurements)
** Current wind speed in m/s (hover to see current wind gust speed)